createdAt,value
2022-07-26T00:01:58.761Z,77.89
2022-07-26T00:12:03.806Z,76.73
2022-07-26T00:22:28.164Z,76.58
2022-07-26T00:32:31.543Z,79.17
2022-07-26T00:42:36.430Z,78.57
2022-07-26T00:52:42.143Z,79.59
2022-07-26T01:02:46.997Z,80.27
2022-07-26T01:12:50.483Z,82.27
2022-07-26T01:22:55.145Z,80.40
2022-07-26T01:32:58.574Z,80.07
2022-07-26T01:43:03.606Z,79.45
2022-07-26T01:53:06.754Z,78.07
2022-07-26T02:03:17.985Z,79.26
2022-07-26T02:13:24.313Z,78.37
2022-07-26T02:23:33.012Z,78.37
2022-07-26T02:33:36.115Z,72.52
2022-07-26T02:44:14.284Z,63.81
2022-07-26T02:54:23.369Z,60.71
2022-07-26T03:25:39.816Z,54.08
2022-07-26T03:35:43.850Z,51.29
2022-07-26T03:46:06.925Z,50.30
2022-07-26T03:56:36.950Z,44.96
2022-07-26T04:06:50.230Z,43.90
2022-07-26T04:16:55.261Z,42.85
2022-07-26T04:27:00.055Z,42.07
2022-07-26T04:37:03.169Z,41.91
2022-07-26T04:47:07.796Z,40.61
2022-07-26T04:57:11.040Z,39.02
2022-07-26T05:07:15.230Z,45.41
2022-07-26T05:17:18.454Z,38.69
2022-07-26T05:27:24.514Z,37.37
2022-07-26T05:37:27.472Z,37.44
2022-07-26T05:47:32.037Z,37.14
2022-07-26T05:57:35.443Z,35.83
2022-07-26T06:07:40.028Z,35.94
2022-07-26T06:17:43.488Z,36.44
2022-07-26T06:27:47.847Z,36.38
2022-07-26T06:37:51.404Z,34.31
2022-07-26T06:48:01.907Z,36.10
2022-07-26T06:58:05.279Z,36.87
2022-07-26T07:51:02.533Z,40.03
2022-07-26T08:01:08.497Z,42.09
2022-07-26T08:11:17.274Z,42.15
2022-07-26T08:21:28.053Z,43.28
2022-07-26T08:31:34.341Z,42.33
2022-07-26T08:41:44.385Z,43.17
2022-07-26T08:51:49.143Z,41.48
2022-07-26T09:01:55.979Z,40.96
2022-07-26T09:55:11.415Z,39.72
2022-07-26T10:47:33.361Z,38.05
2022-07-26T10:57:55.827Z,38.93
2022-07-26T11:08:10.728Z,41.60
2022-07-26T11:18:34.581Z,41.99
2022-07-26T11:28:58.148Z,33.36
2022-07-26T11:39:08.601Z,37.53
2022-07-26T11:49:17.670Z,37.69
2022-07-26T11:59:26.544Z,38.80
2022-07-26T12:20:20.442Z,40.48
2022-07-26T12:41:01.453Z,41.18
2022-07-26T12:51:05.280Z,41.49
2022-07-26T13:33:03.229Z,49.45
2022-07-26T13:43:14.600Z,48.90
2022-07-26T14:03:46.874Z,46.29
2022-07-26T14:13:56.739Z,44.65
2022-07-26T14:24:30.028Z,44.18
2022-07-26T14:44:59.046Z,42.84
2022-07-26T14:55:02.324Z,49.57
2022-07-26T15:05:07.465Z,51.78
2022-07-26T15:15:14.105Z,58.54
2022-07-26T15:25:27.903Z,61.40
2022-07-26T15:35:31.952Z,55.99
2022-07-26T15:45:43.740Z,62.44
2022-07-26T15:55:47.060Z,67.61
2022-07-26T16:05:52.053Z,64.06
2022-07-26T16:15:55.587Z,64.28
2022-07-26T16:26:00.683Z,66.73
2022-07-26T16:36:06.298Z,65.40
2022-07-26T16:46:11.103Z,61.14
2022-07-26T16:56:14.224Z,60.72
2022-07-26T17:06:18.968Z,61.89
2022-07-26T17:16:24.733Z,58.35
2022-07-26T17:26:30.786Z,59.94
2022-07-26T17:36:33.817Z,65.69
2022-07-26T17:46:38.439Z,68.00
2022-07-26T17:56:41.724Z,68.89
2022-07-26T18:06:46.906Z,68.85
2022-07-26T18:16:54.398Z,70.33
2022-07-26T18:26:59.904Z,70.06
2022-07-26T18:37:03.002Z,70.18
2022-07-26T18:47:09.745Z,71.29
2022-07-26T18:57:22.624Z,73.15
2022-07-26T19:07:28.317Z,74.01
2022-07-26T19:17:32.924Z,74.44
2022-07-26T19:27:42.399Z,73.68
2022-07-26T19:37:51.651Z,71.45
2022-07-26T20:10:31.804Z,74.94
2022-07-26T20:21:15.024Z,76.19
2022-07-26T20:42:28.419Z,77.36
2022-07-26T20:52:33.911Z,78.41
2022-07-26T21:02:41.822Z,78.11
2022-07-26T21:12:49.617Z,78.93
2022-07-26T21:23:48.784Z,78.84
2022-07-26T21:33:53.844Z,79.08
2022-07-26T21:43:57.191Z,79.83
2022-07-26T21:54:01.857Z,80.04
2022-07-26T22:04:05.701Z,79.88
2022-07-26T22:14:10.593Z,79.70
2022-07-26T22:24:13.864Z,80.23
2022-07-26T22:34:18.421Z,80.99
2022-07-26T22:44:21.662Z,81.29
2022-07-26T22:54:26.220Z,80.99
2022-07-26T23:04:29.258Z,80.85
2022-07-26T23:14:35.472Z,80.93
2022-07-26T23:24:38.878Z,80.64
2022-07-26T23:34:47.835Z,80.42
2022-07-26T23:44:50.728Z,80.82
2022-07-26T23:54:55.044Z,81.04
